sensor_id;sensor_type;location;lat;lon;timestamp;pressure;altitude;pressure_sealevel;temperature;humidity
38612;BME280;24368;52.156;20.788;2023-11-18T00:02:39;100534.86;;;0.86;100.00
38612;BME280;24368;52.156;20.788;2023-11-18T00:07:43;100537.20;;;0.85;100.00
38612;BME280;24368;52.156;20.788;2023-11-18T00:12:44;100539.31;;;0.88;100.00
38612;BME280;24368;52.156;20.788;2023-11-18T00:17:45;100545.41;;;0.84;100.00
38612;BME280;24368;52.156;20.788;2023-11-18T00:22:46;100548.81;;;0.85;100.00
38612;BME280;24368;52.156;20.788;2023-11-18T00:27:47;100553.63;;;0.86;100.00
38612;BME280;24368;52.156;20.788;2023-11-18T00:32:49;100556.84;;;0.87;100.00
38612;BME280;24368;52.156;20.788;2023-11-18T00:37:50;100562.67;;;0.88;100.00
38612;BME280;24368;52.156;20.788;2023-11-18T00:42:51;100570.16;;;0.88;100.00
38612;BME280;24368;52.156;20.788;2023-11-18T00:47:52;100571.04;;;0.85;100.00
38612;BME280;24368;52.156;20.788;2023-11-18T00:52:53;100572.15;;;0.86;100.00
38612;BME280;24368;52.156;20.788;2023-11-18T00:57:55;100580.39;;;0.88;100.00
38612;BME280;24368;52.156;20.788;2023-11-18T01:02:56;100588.29;;;0.86;100.00
38612;BME280;24368;52.156;20.788;2023-11-18T01:07:57;100588.86;;;0.88;100.00
38612;BME280;24368;52.156;20.788;2023-11-18T01:12:58;100585.30;;;0.87;100.00
38612;BME280;24368;52.156;20.788;2023-11-18T01:18:00;100583.10;;;0.86;100.00
38612;BME280;24368;52.156;20.788;2023-11-18T01:23:01;100587.48;;;0.88;100.00
38612;BME280;24368;52.156;20.788;2023-11-18T01:28:02;100588.11;;;0.86;100.00
38612;BME280;24368;52.156;20.788;2023-11-18T01:33:04;100585.69;;;0.80;100.00
38612;BME280;24368;52.156;20.788;2023-11-18T01:38:05;100576.17;;;0.77;100.00
38612;BME280;24368;52.156;20.788;2023-11-18T01:43:09;100577.16;;;0.75;100.00
38612;BME280;24368;52.156;20.788;2023-11-18T01:48:14;100572.13;;;0.71;100.00
38612;BME280;24368;52.156;20.788;2023-11-18T01:53:16;100572.21;;;0.70;100.00
38612;BME280;24368;52.156;20.788;2023-11-18T01:58:18;100566.64;;;0.70;100.00
38612;BME280;24368;52.156;20.788;2023-11-18T02:03:20;100567.39;;;0.69;100.00
38612;BME280;24368;52.156;20.788;2023-11-18T02:08:21;100572.39;;;0.69;100.00
38612;BME280;24368;52.156;20.788;2023-11-18T02:13:29;100576.48;;;0.68;100.00
38612;BME280;24368;52.156;20.788;2023-11-18T02:18:32;100583.91;;;0.68;100.00
38612;BME280;24368;52.156;20.788;2023-11-18T02:23:33;100589.32;;;0.67;100.00
38612;BME280;24368;52.156;20.788;2023-11-18T02:28:34;100592.16;;;0.70;100.00
38612;BME280;24368;52.156;20.788;2023-11-18T02:33:57;100592.23;;;0.68;100.00
38612;BME280;24368;52.156;20.788;2023-11-18T02:39:01;100597.21;;;0.72;100.00
38612;BME280;24368;52.156;20.788;2023-11-18T02:44:08;100597.60;;;0.75;100.00
38612;BME280;24368;52.156;20.788;2023-11-18T02:49:11;100602.38;;;0.76;100.00
38612;BME280;24368;52.156;20.788;2023-11-18T02:54:13;100607.16;;;0.81;100.00
38612;BME280;24368;52.156;20.788;2023-11-18T02:59:15;100605.33;;;0.83;100.00
38612;BME280;24368;52.156;20.788;2023-11-18T03:04:18;100613.29;;;0.83;100.00
38612;BME280;24368;52.156;20.788;2023-11-18T03:09:20;100617.67;;;0.82;100.00
38612;BME280;24368;52.156;20.788;2023-11-18T03:14:21;100621.10;;;0.77;100.00
38612;BME280;24368;52.156;20.788;2023-11-18T03:19:24;100631.43;;;0.68;100.00
38612;BME280;24368;52.156;20.788;2023-11-18T03:24:26;100635.67;;;0.70;100.00
38612;BME280;24368;52.156;20.788;2023-11-18T03:29:29;100645.77;;;0.69;100.00
38612;BME280;24368;52.156;20.788;2023-11-18T03:34:30;100648.27;;;0.68;100.00
38612;BME280;24368;52.156;20.788;2023-11-18T03:39:31;100654.41;;;0.70;100.00
38612;BME280;24368;52.156;20.788;2023-11-18T03:44:32;100656.65;;;0.70;100.00
38612;BME280;24368;52.156;20.788;2023-11-18T03:49:34;100658.11;;;0.68;100.00
38612;BME280;24368;52.156;20.788;2023-11-18T03:54:35;100660.84;;;0.63;100.00
38612;BME280;24368;52.156;20.788;2023-11-18T03:59:36;100666.31;;;0.64;100.00
38612;BME280;24368;52.156;20.788;2023-11-18T04:04:38;100669.90;;;0.65;100.00
38612;BME280;24368;52.156;20.788;2023-11-18T04:09:39;100671.64;;;0.62;100.00
38612;BME280;24368;52.156;20.788;2023-11-18T04:14:42;100681.73;;;0.65;100.00
38612;BME280;24368;52.156;20.788;2023-11-18T04:19:43;100684.32;;;0.65;100.00
38612;BME280;24368;52.156;20.788;2023-11-18T04:24:44;100684.89;;;0.64;100.00
38612;BME280;24368;52.156;20.788;2023-11-18T04:29:46;100683.20;;;0.63;100.00
38612;BME280;24368;52.156;20.788;2023-11-18T04:34:47;100685.82;;;0.63;100.00
38612;BME280;24368;52.156;20.788;2023-11-18T04:39:50;100687.35;;;0.64;100.00
38612;BME280;24368;52.156;20.788;2023-11-18T04:44:51;100689.84;;;0.62;100.00
38612;BME280;24368;52.156;20.788;2023-11-18T04:49:52;100696.01;;;0.57;100.00
38612;BME280;24368;52.156;20.788;2023-11-18T04:54:54;100700.58;;;0.53;100.00
38612;BME280;24368;52.156;20.788;2023-11-18T04:59:55;100702.20;;;0.52;100.00
38612;BME280;24368;52.156;20.788;2023-11-18T05:04:56;100700.75;;;0.50;100.00
38612;BME280;24368;52.156;20.788;2023-11-18T05:09:58;100706.89;;;0.52;100.00
38612;BME280;24368;52.156;20.788;2023-11-18T05:15:00;100715.98;;;0.47;100.00
38612;BME280;24368;52.156;20.788;2023-11-18T05:20:03;100714.58;;;0.41;100.00
38612;BME280;24368;52.156;20.788;2023-11-18T05:25:05;100712.98;;;0.45;100.00
38612;BME280;24368;52.156;20.788;2023-11-18T05:30:10;100718.80;;;0.42;100.00
38612;BME280;24368;52.156;20.788;2023-11-18T05:35:11;100732.30;;;0.40;100.00
38612;BME280;24368;52.156;20.788;2023-11-18T05:40:12;100743.73;;;0.43;100.00
38612;BME280;24368;52.156;20.788;2023-11-18T05:45:16;100745.11;;;0.43;100.00
38612;BME280;24368;52.156;20.788;2023-11-18T05:50:29;100758.71;;;0.42;100.00
38612;BME280;24368;52.156;20.788;2023-11-18T05:55:30;100768.91;;;0.46;100.00
38612;BME280;24368;52.156;20.788;2023-11-18T06:00:31;100772.05;;;0.42;100.00
38612;BME280;24368;52.156;20.788;2023-11-18T06:05:32;100783.80;;;0.39;100.00
38612;BME280;24368;52.156;20.788;2023-11-18T06:10:35;100788.45;;;0.40;100.00
38612;BME280;24368;52.156;20.788;2023-11-18T06:15:37;100790.79;;;0.35;100.00
38612;BME280;24368;52.156;20.788;2023-11-18T06:20:39;100799.21;;;0.33;100.00
38612;BME280;24368;52.156;20.788;2023-11-18T06:25:41;100803.19;;;0.30;100.00
38612;BME280;24368;52.156;20.788;2023-11-18T06:30:42;100814.71;;;0.28;100.00
38612;BME280;24368;52.156;20.788;2023-11-18T06:35:43;100826.63;;;0.29;100.00
38612;BME280;24368;52.156;20.788;2023-11-18T06:40:45;100833.41;;;0.29;100.00
38612;BME280;24368;52.156;20.788;2023-11-18T06:45:47;100839.33;;;0.32;100.00
38612;BME280;24368;52.156;20.788;2023-11-18T06:50:49;100836.46;;;0.33;100.00
38612;BME280;24368;52.156;20.788;2023-11-18T06:55:50;100839.90;;;0.34;100.00
38612;BME280;24368;52.156;20.788;2023-11-18T07:00:51;100853.20;;;0.35;100.00
38612;BME280;24368;52.156;20.788;2023-11-18T07:05:52;100864.58;;;0.36;100.00
38612;BME280;24368;52.156;20.788;2023-11-18T07:10:54;100861.96;;;0.33;100.00
38612;BME280;24368;52.156;20.788;2023-11-18T07:15:56;100862.70;;;0.32;100.00
38612;BME280;24368;52.156;20.788;2023-11-18T07:21:01;100877.11;;;0.35;100.00
38612;BME280;24368;52.156;20.788;2023-11-18T07:26:05;100888.27;;;0.37;100.00
38612;BME280;24368;52.156;20.788;2023-11-18T07:31:07;100885.21;;;0.39;100.00
38612;BME280;24368;52.156;20.788;2023-11-18T07:36:09;100891.70;;;0.41;100.00
38612;BME280;24368;52.156;20.788;2023-11-18T07:41:12;100895.92;;;0.40;100.00
38612;BME280;24368;52.156;20.788;2023-11-18T07:46:25;100901.48;;;0.40;100.00
38612;BME280;24368;52.156;20.788;2023-11-18T07:51:26;100912.40;;;0.43;100.00
38612;BME280;24368;52.156;20.788;2023-11-18T07:56:27;100915.02;;;0.43;100.00
38612;BME280;24368;52.156;20.788;2023-11-18T08:01:29;100924.80;;;0.45;100.00
38612;BME280;24368;52.156;20.788;2023-11-18T08:06:31;100931.31;;;0.46;100.00
38612;BME280;24368;52.156;20.788;2023-11-18T08:11:33;100935.42;;;0.51;100.00
38612;BME280;24368;52.156;20.788;2023-11-18T08:16:35;100939.29;;;0.57;100.00
38612;BME280;24368;52.156;20.788;2023-11-18T08:21:37;100949.52;;;0.61;100.00
38612;BME280;24368;52.156;20.788;2023-11-18T08:26:40;100957.02;;;0.56;100.00
38612;BME280;24368;52.156;20.788;2023-11-18T08:31:41;100959.47;;;0.52;100.00
38612;BME280;24368;52.156;20.788;2023-11-18T08:36:43;100954.41;;;0.56;100.00
38612;BME280;24368;52.156;20.788;2023-11-18T08:41:44;100958.21;;;0.56;100.00
38612;BME280;24368;52.156;20.788;2023-11-18T08:46:46;100962.48;;;0.61;100.00
38612;BME280;24368;52.156;20.788;2023-11-18T08:51:48;100964.55;;;0.65;100.00
38612;BME280;24368;52.156;20.788;2023-11-18T08:56:57;100972.35;;;0.61;100.00
38612;BME280;24368;52.156;20.788;2023-11-18T09:01:58;100976.59;;;0.60;100.00
38612;BME280;24368;52.156;20.788;2023-11-18T09:07:00;100984.06;;;0.63;100.00
38612;BME280;24368;52.156;20.788;2023-11-18T09:12:01;100995.18;;;0.70;100.00
38612;BME280;24368;52.156;20.788;2023-11-18T09:17:03;100996.50;;;0.67;100.00
38612;BME280;24368;52.156;20.788;2023-11-18T09:22:07;100998.88;;;0.61;100.00
38612;BME280;24368;52.156;20.788;2023-11-18T09:27:08;100998.98;;;0.60;100.00
38612;BME280;24368;52.156;20.788;2023-11-18T09:32:10;101003.36;;;0.55;100.00
38612;BME280;24368;52.156;20.788;2023-11-18T09:37:13;101008.61;;;0.58;100.00
38612;BME280;24368;52.156;20.788;2023-11-18T09:42:16;101006.00;;;0.61;100.00
38612;BME280;24368;52.156;20.788;2023-11-18T09:47:21;101006.72;;;0.61;100.00
38612;BME280;24368;52.156;20.788;2023-11-18T09:52:26;101005.08;;;0.62;100.00
38612;BME280;24368;52.156;20.788;2023-11-18T09:57:39;101007.06;;;0.64;100.00
38612;BME280;24368;52.156;20.788;2023-11-18T10:02:42;101010.14;;;0.69;100.00
38612;BME280;24368;52.156;20.788;2023-11-18T10:07:49;101006.11;;;0.63;100.00
38612;BME280;24368;52.156;20.788;2023-11-18T10:12:51;101007.79;;;0.60;100.00
38612;BME280;24368;52.156;20.788;2023-11-18T10:17:59;101011.03;;;0.61;100.00
38612;BME280;24368;52.156;20.788;2023-11-18T10:23:06;101009.02;;;0.63;100.00
38612;BME280;24368;52.156;20.788;2023-11-18T10:28:08;101018.12;;;0.62;100.00
38612;BME280;24368;52.156;20.788;2023-11-18T10:33:22;101022.30;;;0.58;100.00
38612;BME280;24368;52.156;20.788;2023-11-18T10:38:24;101021.16;;;0.60;100.00
38612;BME280;24368;52.156;20.788;2023-11-18T10:43:26;101016.52;;;0.55;100.00
38612;BME280;24368;52.156;20.788;2023-11-18T10:48:31;101017.19;;;0.56;100.00
38612;BME280;24368;52.156;20.788;2023-11-18T10:53:32;101014.52;;;0.61;100.00
38612;BME280;24368;52.156;20.788;2023-11-18T10:58:37;101018.73;;;0.63;100.00
38612;BME280;24368;52.156;20.788;2023-11-18T11:03:54;101021.35;;;0.63;100.00
38612;BME280;24368;52.156;20.788;2023-11-18T11:08:58;101037.77;;;0.57;100.00
38612;BME280;24368;52.156;20.788;2023-11-18T11:14:00;101043.33;;;0.60;100.00
38612;BME280;24368;52.156;20.788;2023-11-18T11:19:04;101048.98;;;0.55;100.00
38612;BME280;24368;52.156;20.788;2023-11-18T11:29:55;101061.27;;;0.51;100.00
38612;BME280;24368;52.156;20.788;2023-11-18T11:35:23;101059.71;;;0.51;100.00
38612;BME280;24368;52.156;20.788;2023-11-18T11:40:26;101065.08;;;0.59;100.00
38612;BME280;24368;52.156;20.788;2023-11-18T11:45:31;101070.42;;;0.59;100.00
38612;BME280;24368;52.156;20.788;2023-11-18T11:51:05;101078.39;;;0.59;100.00
38612;BME280;24368;52.156;20.788;2023-11-18T11:56:18;101082.73;;;0.63;100.00
38612;BME280;24368;52.156;20.788;2023-11-18T12:01:26;101094.76;;;0.65;100.00
38612;BME280;24368;52.156;20.788;2023-11-18T12:06:33;101098.17;;;0.59;100.00
38612;BME280;24368;52.156;20.788;2023-11-18T12:11:40;101099.99;;;0.61;100.00
38612;BME280;24368;52.156;20.788;2023-11-18T12:22:12;101108.43;;;0.66;100.00
38612;BME280;24368;52.156;20.788;2023-11-18T12:27:56;101118.40;;;0.68;100.00
38612;BME280;24368;52.156;20.788;2023-11-18T12:33:01;101126.37;;;0.68;100.00
38612;BME280;24368;52.156;20.788;2023-11-18T12:49:22;101145.58;;;0.58;100.00
38612;BME280;24368;52.156;20.788;2023-11-18T12:54:27;101158.13;;;0.60;100.00
38612;BME280;24368;52.156;20.788;2023-11-18T12:59:28;101171.66;;;0.60;100.00
38612;BME280;24368;52.156;20.788;2023-11-18T13:04:31;101171.23;;;0.58;100.00
38612;BME280;24368;52.156;20.788;2023-11-18T13:09:32;101175.27;;;0.53;100.00
38612;BME280;24368;52.156;20.788;2023-11-18T13:14:38;101177.54;;;0.49;100.00
38612;BME280;24368;52.156;20.788;2023-11-18T13:19:40;101180.84;;;0.45;100.00
38612;BME280;24368;52.156;20.788;2023-11-18T13:24:42;101185.16;;;0.38;100.00
38612;BME280;24368;52.156;20.788;2023-11-18T13:29:47;101198.52;;;0.37;100.00
38612;BME280;24368;52.156;20.788;2023-11-18T13:34:53;101202.70;;;0.41;100.00
38612;BME280;24368;52.156;20.788;2023-11-18T13:39:56;101203.90;;;0.45;100.00
38612;BME280;24368;52.156;20.788;2023-11-18T13:45:00;101206.08;;;0.39;100.00
38612;BME280;24368;52.156;20.788;2023-11-18T13:50:06;101212.64;;;0.36;100.00
38612;BME280;24368;52.156;20.788;2023-11-18T13:55:08;101222.20;;;0.31;100.00
38612;BME280;24368;52.156;20.788;2023-11-18T14:00:10;101224.98;;;0.31;100.00
38612;BME280;24368;52.156;20.788;2023-11-18T14:05:17;101223.50;;;0.33;100.00
38612;BME280;24368;52.156;20.788;2023-11-18T14:10:18;101225.66;;;0.35;100.00
38612;BME280;24368;52.156;20.788;2023-11-18T14:15:20;101232.15;;;0.34;100.00
38612;BME280;24368;52.156;20.788;2023-11-18T14:20:21;101239.53;;;0.23;100.00
38612;BME280;24368;52.156;20.788;2023-11-18T14:25:23;101250.37;;;0.25;100.00
38612;BME280;24368;52.156;20.788;2023-11-18T14:30:25;101251.17;;;0.27;100.00
38612;BME280;24368;52.156;20.788;2023-11-18T14:35:26;101253.48;;;0.25;100.00
38612;BME280;24368;52.156;20.788;2023-11-18T14:40:27;101251.20;;;0.26;100.00
38612;BME280;24368;52.156;20.788;2023-11-18T14:45:29;101251.62;;;0.24;100.00
38612;BME280;24368;52.156;20.788;2023-11-18T14:50:30;101252.76;;;0.18;100.00
38612;BME280;24368;52.156;20.788;2023-11-18T14:55:32;101251.77;;;0.16;100.00
38612;BME280;24368;52.156;20.788;2023-11-18T15:00:34;101246.75;;;0.16;100.00
38612;BME280;24368;52.156;20.788;2023-11-18T15:05:35;101243.91;;;0.18;100.00
38612;BME280;24368;52.156;20.788;2023-11-18T15:10:36;101250.06;;;0.24;100.00
38612;BME280;24368;52.156;20.788;2023-11-18T15:15:41;101253.23;;;0.22;100.00
38612;BME280;24368;52.156;20.788;2023-11-18T15:20:43;101249.24;;;0.19;100.00
38612;BME280;24368;52.156;20.788;2023-11-18T15:25:44;101248.30;;;0.21;100.00
38612;BME280;24368;52.156;20.788;2023-11-18T15:30:45;101247.23;;;0.21;100.00
38612;BME280;24368;52.156;20.788;2023-11-18T15:35:46;101251.05;;;0.21;100.00
38612;BME280;24368;52.156;20.788;2023-11-18T15:40:48;101257.18;;;0.19;100.00
38612;BME280;24368;52.156;20.788;2023-11-18T15:45:50;101272.42;;;0.16;100.00
38612;BME280;24368;52.156;20.788;2023-11-18T15:50:52;101277.31;;;0.15;100.00
38612;BME280;24368;52.156;20.788;2023-11-18T15:55:53;101276.09;;;0.15;100.00
38612;BME280;24368;52.156;20.788;2023-11-18T16:00:54;101280.73;;;0.16;100.00
38612;BME280;24368;52.156;20.788;2023-11-18T16:05:55;101283.30;;;0.13;100.00
38612;BME280;24368;52.156;20.788;2023-11-18T16:10:57;101285.15;;;0.14;100.00
38612;BME280;24368;52.156;20.788;2023-11-18T16:15:58;101291.26;;;0.17;100.00
38612;BME280;24368;52.156;20.788;2023-11-18T16:20:59;101290.46;;;0.19;100.00
38612;BME280;24368;52.156;20.788;2023-11-18T16:26:03;101289.52;;;0.26;100.00
38612;BME280;24368;52.156;20.788;2023-11-18T16:31:07;101290.93;;;0.33;100.00
38612;BME280;24368;52.156;20.788;2023-11-18T16:36:08;101297.77;;;0.35;100.00
38612;BME280;24368;52.156;20.788;2023-11-18T16:41:09;101297.14;;;0.30;100.00
38612;BME280;24368;52.156;20.788;2023-11-18T16:46:11;101295.94;;;0.21;100.00
38612;BME280;24368;52.156;20.788;2023-11-18T16:51:12;101300.94;;;0.26;100.00
38612;BME280;24368;52.156;20.788;2023-11-18T16:56:13;101303.56;;;0.26;100.00
38612;BME280;24368;52.156;20.788;2023-11-18T17:01:14;101305.42;;;0.31;100.00
38612;BME280;24368;52.156;20.788;2023-11-18T17:06:17;101310.21;;;0.32;100.00
38612;BME280;24368;52.156;20.788;2023-11-18T17:11:21;101314.14;;;0.21;100.00
38612;BME280;24368;52.156;20.788;2023-11-18T17:16:25;101314.13;;;0.17;100.00
38612;BME280;24368;52.156;20.788;2023-11-18T17:21:27;101308.28;;;0.16;100.00
38612;BME280;24368;52.156;20.788;2023-11-18T17:26:28;101303.45;;;0.11;100.00
38612;BME280;24368;52.156;20.788;2023-11-18T17:31:29;101305.98;;;0.17;100.00
38612;BME280;24368;52.156;20.788;2023-11-18T17:36:31;101304.20;;;0.22;100.00
38612;BME280;24368;52.156;20.788;2023-11-18T17:41:34;101301.84;;;0.21;100.00
38612;BME280;24368;52.156;20.788;2023-11-18T17:46:36;101288.06;;;0.15;100.00
38612;BME280;24368;52.156;20.788;2023-11-18T17:51:38;101294.41;;;0.08;100.00
38612;BME280;24368;52.156;20.788;2023-11-18T17:56:40;101288.73;;;0.07;100.00
38612;BME280;24368;52.156;20.788;2023-11-18T18:01:42;101290.27;;;0.12;100.00
38612;BME280;24368;52.156;20.788;2023-11-18T18:06:43;101293.50;;;0.13;100.00
38612;BME280;24368;52.156;20.788;2023-11-18T18:11:44;101293.41;;;0.11;100.00
38612;BME280;24368;52.156;20.788;2023-11-18T18:16:45;101292.80;;;0.09;100.00
38612;BME280;24368;52.156;20.788;2023-11-18T18:21:46;101293.98;;;0.02;100.00
38612;BME280;24368;52.156;20.788;2023-11-18T18:26:47;101288.70;;;-0.01;100.00
38612;BME280;24368;52.156;20.788;2023-11-18T18:31:48;101275.77;;;-0.02;100.00
38612;BME280;24368;52.156;20.788;2023-11-18T18:36:50;101279.21;;;0.03;100.00
38612;BME280;24368;52.156;20.788;2023-11-18T18:41:51;101282.42;;;0.09;100.00
38612;BME280;24368;52.156;20.788;2023-11-18T18:46:52;101279.27;;;0.09;100.00
38612;BME280;24368;52.156;20.788;2023-11-18T18:51:55;101277.75;;;0.00;100.00
38612;BME280;24368;52.156;20.788;2023-11-18T18:56:56;101279.02;;;-0.09;100.00
38612;BME280;24368;52.156;20.788;2023-11-18T19:01:57;101285.85;;;-0.15;100.00
38612;BME280;24368;52.156;20.788;2023-11-18T19:06:59;101286.64;;;-0.18;100.00
38612;BME280;24368;52.156;20.788;2023-11-18T19:12:00;101297.39;;;-0.18;100.00
38612;BME280;24368;52.156;20.788;2023-11-18T19:17:01;101304.12;;;-0.17;100.00
38612;BME280;24368;52.156;20.788;2023-11-18T19:22:04;101308.26;;;-0.13;100.00
38612;BME280;24368;52.156;20.788;2023-11-18T19:27:07;101312.23;;;-0.16;100.00
38612;BME280;24368;52.156;20.788;2023-11-18T19:32:11;101307.16;;;-0.11;100.00
38612;BME280;24368;52.156;20.788;2023-11-18T19:37:12;101302.81;;;-0.07;100.00
38612;BME280;24368;52.156;20.788;2023-11-18T19:42:13;101294.71;;;-0.03;100.00
38612;BME280;24368;52.156;20.788;2023-11-18T19:47:15;101292.52;;;-0.00;100.00
38612;BME280;24368;52.156;20.788;2023-11-18T19:52:16;101287.20;;;-0.06;100.00
38612;BME280;24368;52.156;20.788;2023-11-18T19:57:17;101284.23;;;-0.10;100.00
38612;BME280;24368;52.156;20.788;2023-11-18T20:02:18;101287.65;;;-0.17;100.00
38612;BME280;24368;52.156;20.788;2023-11-18T20:07:19;101291.77;;;-0.20;100.00
38612;BME280;24368;52.156;20.788;2023-11-18T20:12:20;101278.26;;;-0.16;100.00
38612;BME280;24368;52.156;20.788;2023-11-18T20:17:22;101265.80;;;-0.03;100.00
38612;BME280;24368;52.156;20.788;2023-11-18T20:22:23;101253.98;;;-0.03;100.00
38612;BME280;24368;52.156;20.788;2023-11-18T20:27:25;101236.02;;;-0.09;100.00
38612;BME280;24368;52.156;20.788;2023-11-18T20:32:26;101226.80;;;-0.16;100.00
38612;BME280;24368;52.156;20.788;2023-11-18T20:37:29;101230.80;;;-0.20;100.00
38612;BME280;24368;52.156;20.788;2023-11-18T20:42:30;101233.79;;;-0.21;100.00
38612;BME280;24368;52.156;20.788;2023-11-18T20:47:31;101235.10;;;-0.24;100.00
38612;BME280;24368;52.156;20.788;2023-11-18T20:52:32;101223.38;;;-0.17;100.00
38612;BME280;24368;52.156;20.788;2023-11-18T20:57:35;101213.91;;;-0.10;100.00
38612;BME280;24368;52.156;20.788;2023-11-18T21:02:36;101204.66;;;-0.08;100.00
38612;BME280;24368;52.156;20.788;2023-11-18T21:07:37;101197.35;;;-0.15;100.00
38612;BME280;24368;52.156;20.788;2023-11-18T21:12:38;101205.61;;;-0.18;100.00
38612;BME280;24368;52.156;20.788;2023-11-18T21:17:40;101208.88;;;-0.21;100.00
38612;BME280;24368;52.156;20.788;2023-11-18T21:22:42;101209.91;;;-0.26;100.00
38612;BME280;24368;52.156;20.788;2023-11-18T21:27:43;101204.61;;;-0.23;100.00
38612;BME280;24368;52.156;20.788;2023-11-18T21:32:45;101199.57;;;-0.23;100.00
38612;BME280;24368;52.156;20.788;2023-11-18T21:37:49;101191.54;;;-0.21;100.00
38612;BME280;24368;52.156;20.788;2023-11-18T21:42:53;101184.00;;;-0.19;100.00
38612;BME280;24368;52.156;20.788;2023-11-18T21:47:55;101184.07;;;-0.20;100.00
38612;BME280;24368;52.156;20.788;2023-11-18T21:53:00;101188.35;;;-0.20;100.00
38612;BME280;24368;52.156;20.788;2023-11-18T21:58:03;101188.09;;;-0.18;100.00
38612;BME280;24368;52.156;20.788;2023-11-18T22:03:06;101193.89;;;-0.12;100.00
38612;BME280;24368;52.156;20.788;2023-11-18T22:08:07;101199.74;;;-0.07;100.00
38612;BME280;24368;52.156;20.788;2023-11-18T22:13:08;101206.30;;;-0.14;100.00
38612;BME280;24368;52.156;20.788;2023-11-18T22:18:09;101220.48;;;-0.22;100.00
38612;BME280;24368;52.156;20.788;2023-11-18T22:23:10;101230.79;;;-0.37;100.00
38612;BME280;24368;52.156;20.788;2023-11-18T22:28:12;101231.64;;;-0.45;100.00
38612;BME280;24368;52.156;20.788;2023-11-18T22:33:13;101238.40;;;-0.41;100.00
38612;BME280;24368;52.156;20.788;2023-11-18T22:38:14;101246.95;;;-0.39;100.00
38612;BME280;24368;52.156;20.788;2023-11-18T22:43:16;101253.17;;;-0.34;100.00
38612;BME280;24368;52.156;20.788;2023-11-18T22:48:20;101224.64;;;-0.39;100.00
38612;BME280;24368;52.156;20.788;2023-11-18T22:53:21;101192.25;;;-0.30;100.00
38612;BME280;24368;52.156;20.788;2023-11-18T22:58:22;101182.65;;;-0.25;100.00
38612;BME280;24368;52.156;20.788;2023-11-18T23:03:23;101158.14;;;-0.26;100.00
38612;BME280;24368;52.156;20.788;2023-11-18T23:08:26;101143.45;;;-0.23;100.00
38612;BME280;24368;52.156;20.788;2023-11-18T23:13:27;101130.23;;;-0.17;100.00
38612;BME280;24368;52.156;20.788;2023-11-18T23:18:30;101127.06;;;-0.12;100.00
38612;BME280;24368;52.156;20.788;2023-11-18T23:23:32;101130.38;;;-0.09;100.00
38612;BME280;24368;52.156;20.788;2023-11-18T23:28:33;101118.98;;;-0.06;100.00
38612;BME280;24368;52.156;20.788;2023-11-18T23:33:35;101124.12;;;-0.05;100.00
38612;BME280;24368;52.156;20.788;2023-11-18T23:38:36;101115.47;;;-0.09;100.00
38612;BME280;24368;52.156;20.788;2023-11-18T23:43:37;101121.55;;;-0.13;100.00
38612;BME280;24368;52.156;20.788;2023-11-18T23:48:40;101114.02;;;-0.11;100.00
38612;BME280;24368;52.156;20.788;2023-11-18T23:53:44;101112.11;;;-0.07;100.00
38612;BME280;24368;52.156;20.788;2023-11-18T23:58:46;101112.02;;;-0.05;100.00
